createdAt,value
2023-04-16T00:08:24.780Z,5.20
2023-04-16T00:18:46.174Z,5.11
2023-04-16T00:29:07.688Z,4.99
2023-04-16T00:39:28.876Z,4.90
2023-04-16T00:49:50.773Z,4.86
2023-04-16T01:00:13.665Z,4.82
2023-04-16T01:10:34.846Z,4.79
2023-04-16T01:20:56.306Z,4.78
2023-04-16T01:31:17.676Z,4.76
2023-04-16T01:41:46.937Z,4.74
2023-04-16T01:52:09.106Z,4.72
2023-04-16T02:02:31.258Z,4.69
2023-04-16T02:12:53.977Z,4.67
2023-04-16T02:23:15.555Z,4.63
2023-04-16T02:33:38.286Z,4.60
2023-04-16T02:43:59.476Z,4.56
2023-04-16T02:54:21.230Z,4.54
2023-04-16T03:04:42.745Z,4.52
2023-04-16T03:15:04.566Z,4.51
2023-04-16T03:25:25.683Z,4.49
2023-04-16T03:35:47.021Z,4.47
2023-04-16T03:46:09.436Z,4.47
2023-04-16T03:56:30.923Z,4.45
2023-04-16T04:06:52.196Z,4.46
2023-04-16T04:17:14.584Z,4.45
2023-04-16T04:27:36.084Z,4.42
2023-04-16T04:37:57.721Z,4.40
2023-04-16T04:48:19.095Z,4.37
2023-04-16T04:58:42.077Z,4.37
2023-04-16T05:09:03.703Z,4.36
2023-04-16T05:19:25.026Z,4.38
2023-04-16T05:29:46.066Z,4.39
2023-04-16T05:40:07.778Z,4.40
2023-04-16T05:50:29.154Z,4.45
2023-04-16T06:00:50.472Z,4.48
2023-04-16T06:11:11.950Z,4.50
2023-04-16T06:21:33.786Z,4.57
2023-04-16T06:31:55.129Z,4.66
2023-04-16T06:42:16.347Z,4.77
2023-04-16T06:52:37.634Z,4.90
2023-04-16T07:03:01.523Z,5.05
2023-04-16T07:13:23.353Z,5.18
2023-04-16T07:23:44.557Z,5.28
2023-04-16T07:34:06.295Z,5.36
2023-04-16T07:44:27.349Z,5.45
2023-04-16T07:54:48.562Z,5.53
2023-04-16T08:05:11.038Z,5.61
2023-04-16T08:15:32.691Z,5.68
2023-04-16T08:25:54.977Z,5.75
2023-04-16T08:36:16.305Z,5.83
2023-04-16T08:46:38.399Z,5.90
2023-04-16T08:57:00.086Z,6.00
2023-04-16T09:07:22.328Z,6.12
2023-04-16T09:17:43.315Z,6.26
2023-04-16T09:28:05.000Z,6.45
2023-04-16T09:38:26.856Z,6.48
2023-04-16T09:48:48.184Z,6.64
2023-04-16T09:59:12.307Z,6.88
2023-04-16T10:09:38.011Z,7.11
2023-04-16T10:20:00.591Z,7.25
2023-04-16T10:30:22.541Z,7.34
2023-04-16T10:40:45.215Z,7.38
2023-04-16T10:51:06.585Z,7.52
2023-04-16T11:01:33.145Z,7.77
2023-04-16T11:11:54.505Z,8.00
2023-04-16T11:22:17.659Z,8.16
2023-04-16T11:32:39.436Z,8.26
2023-04-16T11:43:13.990Z,8.26
2023-04-16T11:53:36.968Z,8.19
2023-04-16T12:04:02.625Z,8.14
2023-04-16T12:14:24.389Z,8.13
2023-04-16T12:24:45.831Z,8.11
2023-04-16T12:35:07.124Z,8.13
2023-04-16T12:45:29.003Z,8.13
2023-04-16T12:55:50.128Z,8.13
2023-04-16T13:06:11.199Z,8.13
2023-04-16T13:16:32.562Z,8.14
2023-04-16T13:26:54.045Z,8.14
2023-04-16T13:37:15.063Z,8.17
2023-04-16T13:47:36.726Z,8.19
2023-04-16T13:57:58.139Z,8.25
2023-04-16T14:08:21.466Z,8.30
2023-04-16T14:18:42.688Z,8.33
2023-04-16T14:29:04.039Z,8.38
2023-04-16T14:39:25.288Z,8.41
2023-04-16T14:49:46.320Z,8.39
2023-04-16T15:00:10.581Z,8.37
2023-04-16T15:10:31.747Z,8.38
2023-04-16T15:20:54.919Z,8.42
2023-04-16T15:31:16.374Z,8.47
2023-04-16T15:41:50.146Z,8.52
2023-04-16T15:52:20.207Z,8.56
2023-04-16T16:02:42.308Z,8.60
2023-04-16T16:13:05.762Z,8.63
2023-04-16T16:23:27.598Z,8.63
2023-04-16T16:33:49.066Z,8.67
2023-04-16T16:44:10.012Z,8.68
2023-04-16T16:54:31.543Z,8.69
2023-04-16T17:04:53.024Z,8.69
2023-04-16T17:15:14.644Z,8.73
2023-04-16T17:25:35.898Z,8.75
2023-04-16T17:35:57.161Z,8.74
2023-04-16T17:46:18.568Z,8.78
2023-04-16T17:56:39.978Z,8.78
2023-04-16T18:07:01.301Z,8.77
2023-04-16T18:17:23.045Z,8.70
2023-04-16T18:27:45.654Z,8.65
2023-04-16T18:38:06.867Z,8.60
2023-04-16T18:48:27.865Z,8.54
2023-04-16T18:58:49.565Z,8.49
2023-04-16T19:09:11.692Z,8.46
2023-04-16T19:19:33.301Z,8.41
2023-04-16T19:29:54.606Z,8.38
2023-04-16T19:40:15.612Z,8.33
2023-04-16T19:50:40.334Z,8.27
2023-04-16T20:01:01.700Z,8.22
2023-04-16T20:11:24.009Z,8.15
2023-04-16T20:21:45.789Z,8.09
2023-04-16T20:32:07.516Z,8.04
2023-04-16T20:42:32.277Z,7.99
2023-04-16T20:52:53.793Z,7.94
2023-04-16T21:03:15.690Z,7.90
2023-04-16T21:13:37.241Z,7.85
2023-04-16T21:23:58.504Z,7.81
2023-04-16T21:34:19.512Z,7.77
2023-04-16T21:44:40.857Z,7.71
2023-04-16T21:55:02.416Z,7.66
2023-04-16T22:05:25.270Z,7.61
2023-04-16T22:15:46.268Z,7.55
2023-04-16T22:26:08.563Z,7.50
2023-04-16T22:36:29.888Z,7.43
2023-04-16T22:46:51.181Z,7.38
2023-04-16T22:57:12.441Z,7.32
2023-04-16T23:07:33.704Z,7.26
2023-04-16T23:17:54.838Z,7.21
2023-04-16T23:28:15.977Z,7.15
2023-04-16T23:38:37.605Z,7.08
2023-04-16T23:48:58.782Z,7.04
2023-04-16T23:59:19.890Z,7.00
